sensor_id;sensor_type;location;lat;lon;timestamp;temperature;humidity
9845;DHT22;4961;50.782;6.080;2022-09-01T00:00:26;18.60;99.90
9845;DHT22;4961;50.782;6.080;2022-09-01T00:02:55;18.60;99.90
9845;DHT22;4961;50.782;6.080;2022-09-01T00:05:24;18.50;99.90
9845;DHT22;4961;50.782;6.080;2022-09-01T00:07:52;18.50;99.90
9845;DHT22;4961;50.782;6.080;2022-09-01T00:10:21;18.50;99.90
9845;DHT22;4961;50.782;6.080;2022-09-01T00:12:49;18.40;99.90
9845;DHT22;4961;50.782;6.080;2022-09-01T00:15:17;18.40;99.90
9845;DHT22;4961;50.782;6.080;2022-09-01T00:17:47;18.40;99.90
9845;DHT22;4961;50.782;6.080;2022-09-01T00:20:17;18.40;99.90
9845;DHT22;4961;50.782;6.080;2022-09-01T00:22:47;18.30;99.90
9845;DHT22;4961;50.782;6.080;2022-09-01T00:25:15;18.30;99.90
9845;DHT22;4961;50.782;6.080;2022-09-01T00:27:46;18.30;99.90
9845;DHT22;4961;50.782;6.080;2022-09-01T00:30:15;18.30;99.90
9845;DHT22;4961;50.782;6.080;2022-09-01T00:32:43;18.30;99.90
9845;DHT22;4961;50.782;6.080;2022-09-01T00:35:16;18.20;99.90
9845;DHT22;4961;50.782;6.080;2022-09-01T00:37:45;18.20;99.90
9845;DHT22;4961;50.782;6.080;2022-09-01T00:40:15;18.10;99.90
9845;DHT22;4961;50.782;6.080;2022-09-01T00:42:45;18.10;99.90
9845;DHT22;4961;50.782;6.080;2022-09-01T00:45:14;18.00;99.90
9845;DHT22;4961;50.782;6.080;2022-09-01T00:47:43;17.90;99.90
9845;DHT22;4961;50.782;6.080;2022-09-01T00:50:12;17.90;99.90
9845;DHT22;4961;50.782;6.080;2022-09-01T00:52:47;17.90;99.90
9845;DHT22;4961;50.782;6.080;2022-09-01T00:55:21;17.90;99.90
9845;DHT22;4961;50.782;6.080;2022-09-01T00:57:50;17.90;99.90
9845;DHT22;4961;50.782;6.080;2022-09-01T01:00:21;17.90;99.90
9845;DHT22;4961;50.782;6.080;2022-09-01T01:02:51;17.80;99.90
9845;DHT22;4961;50.782;6.080;2022-09-01T01:05:23;17.80;99.90
9845;DHT22;4961;50.782;6.080;2022-09-01T01:07:55;17.80;99.90
9845;DHT22;4961;50.782;6.080;2022-09-01T01:10:24;17.80;99.90
9845;DHT22;4961;50.782;6.080;2022-09-01T01:12:52;17.80;99.90
9845;DHT22;4961;50.782;6.080;2022-09-01T01:15:22;17.80;99.90
9845;DHT22;4961;50.782;6.080;2022-09-01T01:17:50;17.80;99.90
9845;DHT22;4961;50.782;6.080;2022-09-01T01:20:19;17.70;99.90
9845;DHT22;4961;50.782;6.080;2022-09-01T01:23:17;17.70;99.90
9845;DHT22;4961;50.782;6.080;2022-09-01T01:25:50;17.70;99.90
9845;DHT22;4961;50.782;6.080;2022-09-01T01:28:21;17.60;99.90
9845;DHT22;4961;50.782;6.080;2022-09-01T01:30:54;17.60;99.90
9845;DHT22;4961;50.782;6.080;2022-09-01T01:33:27;17.60;99.90
9845;DHT22;4961;50.782;6.080;2022-09-01T01:35:56;17.60;99.90
9845;DHT22;4961;50.782;6.080;2022-09-01T01:38:27;17.60;99.90
9845;DHT22;4961;50.782;6.080;2022-09-01T01:40:57;17.60;99.90
9845;DHT22;4961;50.782;6.080;2022-09-01T01:43:27;17.60;99.90
9845;DHT22;4961;50.782;6.080;2022-09-01T01:45:56;17.60;99.90
9845;DHT22;4961;50.782;6.080;2022-09-01T01:48:29;17.60;99.90
9845;DHT22;4961;50.782;6.080;2022-09-01T01:51:01;17.60;99.90
9845;DHT22;4961;50.782;6.080;2022-09-01T01:53:31;17.60;99.90
9845;DHT22;4961;50.782;6.080;2022-09-01T01:56:01;17.50;99.90
9845;DHT22;4961;50.782;6.080;2022-09-01T01:58:29;17.60;99.90
9845;DHT22;4961;50.782;6.080;2022-09-01T02:00:58;17.50;99.90
9845;DHT22;4961;50.782;6.080;2022-09-01T02:03:32;17.50;99.90
9845;DHT22;4961;50.782;6.080;2022-09-01T02:06:02;17.50;99.90
9845;DHT22;4961;50.782;6.080;2022-09-01T02:08:33;17.50;99.90
9845;DHT22;4961;50.782;6.080;2022-09-01T02:11:04;17.50;99.90
9845;DHT22;4961;50.782;6.080;2022-09-01T02:13:33;17.50;99.90
9845;DHT22;4961;50.782;6.080;2022-09-01T02:16:04;17.40;99.90
9845;DHT22;4961;50.782;6.080;2022-09-01T02:18:35;17.40;99.90
9845;DHT22;4961;50.782;6.080;2022-09-01T02:21:06;17.40;99.90
9845;DHT22;4961;50.782;6.080;2022-09-01T02:23:42;17.40;99.90
9845;DHT22;4961;50.782;6.080;2022-09-01T02:26:11;17.40;99.90
9845;DHT22;4961;50.782;6.080;2022-09-01T02:28:45;17.40;99.90
9845;DHT22;4961;50.782;6.080;2022-09-01T02:31:22;17.30;99.90
9845;DHT22;4961;50.782;6.080;2022-09-01T02:33:51;17.30;99.90
9845;DHT22;4961;50.782;6.080;2022-09-01T02:36:20;17.30;99.90
9845;DHT22;4961;50.782;6.080;2022-09-01T02:38:52;17.30;99.90
9845;DHT22;4961;50.782;6.080;2022-09-01T02:41:24;17.30;99.90
9845;DHT22;4961;50.782;6.080;2022-09-01T02:43:55;17.30;99.90
9845;DHT22;4961;50.782;6.080;2022-09-01T02:46:25;17.20;99.90
9845;DHT22;4961;50.782;6.080;2022-09-01T02:48:55;17.20;99.90
9845;DHT22;4961;50.782;6.080;2022-09-01T02:51:26;17.10;99.90
9845;DHT22;4961;50.782;6.080;2022-09-01T02:53:54;17.10;99.90
9845;DHT22;4961;50.782;6.080;2022-09-01T02:56:26;17.00;99.90
9845;DHT22;4961;50.782;6.080;2022-09-01T02:58:54;17.00;99.90
9845;DHT22;4961;50.782;6.080;2022-09-01T03:01:25;16.90;99.90
9845;DHT22;4961;50.782;6.080;2022-09-01T03:03:57;16.90;99.90
9845;DHT22;4961;50.782;6.080;2022-09-01T03:06:26;17.00;99.90
9845;DHT22;4961;50.782;6.080;2022-09-01T03:12:37;16.90;99.90
9845;DHT22;4961;50.782;6.080;2022-09-01T03:15:06;16.90;99.90
9845;DHT22;4961;50.782;6.080;2022-09-01T03:17:38;16.90;99.90
9845;DHT22;4961;50.782;6.080;2022-09-01T03:20:08;16.90;99.90
9845;DHT22;4961;50.782;6.080;2022-09-01T03:22:36;16.90;99.90
9845;DHT22;4961;50.782;6.080;2022-09-01T03:25:05;16.80;99.90
9845;DHT22;4961;50.782;6.080;2022-09-01T03:27:33;16.80;99.90
9845;DHT22;4961;50.782;6.080;2022-09-01T03:30:03;16.90;99.90
9845;DHT22;4961;50.782;6.080;2022-09-01T03:32:32;16.90;99.90
9845;DHT22;4961;50.782;6.080;2022-09-01T03:35:00;16.90;99.90
9845;DHT22;4961;50.782;6.080;2022-09-01T03:37:29;16.80;99.90
9845;DHT22;4961;50.782;6.080;2022-09-01T03:39:57;16.80;99.90
9845;DHT22;4961;50.782;6.080;2022-09-01T03:42:25;16.80;99.90
9845;DHT22;4961;50.782;6.080;2022-09-01T03:44:55;16.70;99.90
9845;DHT22;4961;50.782;6.080;2022-09-01T03:47:25;16.70;99.90
9845;DHT22;4961;50.782;6.080;2022-09-01T03:49:53;16.70;99.90
9845;DHT22;4961;50.782;6.080;2022-09-01T03:52:21;16.60;99.90
9845;DHT22;4961;50.782;6.080;2022-09-01T03:54:51;16.70;99.90
9845;DHT22;4961;50.782;6.080;2022-09-01T03:57:19;16.70;99.90
9845;DHT22;4961;50.782;6.080;2022-09-01T03:59:49;16.70;99.90
9845;DHT22;4961;50.782;6.080;2022-09-01T04:02:20;16.70;99.90
9845;DHT22;4961;50.782;6.080;2022-09-01T04:04:52;16.60;99.90
9845;DHT22;4961;50.782;6.080;2022-09-01T04:07:20;16.60;99.90
9845;DHT22;4961;50.782;6.080;2022-09-01T04:09:50;16.60;99.90
9845;DHT22;4961;50.782;6.080;2022-09-01T04:12:18;16.60;99.90
9845;DHT22;4961;50.782;6.080;2022-09-01T04:14:46;16.50;99.90
9845;DHT22;4961;50.782;6.080;2022-09-01T04:17:14;16.50;99.90
9845;DHT22;4961;50.782;6.080;2022-09-01T04:20:03;16.50;99.90
9845;DHT22;4961;50.782;6.080;2022-09-01T04:22:34;16.50;99.90
9845;DHT22;4961;50.782;6.080;2022-09-01T04:25:04;16.50;99.90
9845;DHT22;4961;50.782;6.080;2022-09-01T04:27:35;16.50;99.90
9845;DHT22;4961;50.782;6.080;2022-09-01T04:30:08;16.50;99.90
9845;DHT22;4961;50.782;6.080;2022-09-01T04:32:37;16.50;99.90
9845;DHT22;4961;50.782;6.080;2022-09-01T04:35:08;16.50;99.90
9845;DHT22;4961;50.782;6.080;2022-09-01T04:37:42;16.50;99.90
9845;DHT22;4961;50.782;6.080;2022-09-01T04:40:13;16.40;99.90
9845;DHT22;4961;50.782;6.080;2022-09-01T04:42:43;16.30;99.90
9845;DHT22;4961;50.782;6.080;2022-09-01T04:45:11;16.30;99.90
9845;DHT22;4961;50.782;6.080;2022-09-01T04:47:46;16.30;99.90
9845;DHT22;4961;50.782;6.080;2022-09-01T04:50:16;16.30;99.90
9845;DHT22;4961;50.782;6.080;2022-09-01T04:52:44;16.30;99.90
9845;DHT22;4961;50.782;6.080;2022-09-01T04:55:14;16.30;99.90
9845;DHT22;4961;50.782;6.080;2022-09-01T04:57:45;16.20;99.90
9845;DHT22;4961;50.782;6.080;2022-09-01T05:00:16;16.20;99.90
9845;DHT22;4961;50.782;6.080;2022-09-01T05:02:49;16.20;99.90
9845;DHT22;4961;50.782;6.080;2022-09-01T05:05:21;16.20;99.90
9845;DHT22;4961;50.782;6.080;2022-09-01T05:07:49;16.20;99.90
9845;DHT22;4961;50.782;6.080;2022-09-01T05:10:20;16.20;99.90
9845;DHT22;4961;50.782;6.080;2022-09-01T05:12:49;16.20;99.90
9845;DHT22;4961;50.782;6.080;2022-09-01T05:15:18;16.20;99.90
9845;DHT22;4961;50.782;6.080;2022-09-01T05:17:46;16.20;99.90
9845;DHT22;4961;50.782;6.080;2022-09-01T05:20:17;16.20;99.90
9845;DHT22;4961;50.782;6.080;2022-09-01T05:22:54;16.20;99.90
9845;DHT22;4961;50.782;6.080;2022-09-01T05:25:25;16.20;99.90
9845;DHT22;4961;50.782;6.080;2022-09-01T05:27:54;16.20;99.90
9845;DHT22;4961;50.782;6.080;2022-09-01T05:30:23;16.20;99.90
9845;DHT22;4961;50.782;6.080;2022-09-01T05:32:54;16.30;99.90
9845;DHT22;4961;50.782;6.080;2022-09-01T05:35:22;16.30;99.90
9845;DHT22;4961;50.782;6.080;2022-09-01T05:38:00;16.30;99.90
9845;DHT22;4961;50.782;6.080;2022-09-01T05:40:29;16.30;99.90
9845;DHT22;4961;50.782;6.080;2022-09-01T05:43:04;16.40;99.90
9845;DHT22;4961;50.782;6.080;2022-09-01T05:45:35;16.40;99.90
9845;DHT22;4961;50.782;6.080;2022-09-01T05:48:24;16.50;99.90
9845;DHT22;4961;50.782;6.080;2022-09-01T05:50:56;16.50;99.90
9845;DHT22;4961;50.782;6.080;2022-09-01T05:53:27;16.60;99.90
9845;DHT22;4961;50.782;6.080;2022-09-01T05:55:56;16.60;99.90
9845;DHT22;4961;50.782;6.080;2022-09-01T05:58:26;16.60;99.90
9845;DHT22;4961;50.782;6.080;2022-09-01T06:01:16;16.60;99.90
9845;DHT22;4961;50.782;6.080;2022-09-01T06:03:48;16.70;99.90
9845;DHT22;4961;50.782;6.080;2022-09-01T06:06:22;16.70;99.90
9845;DHT22;4961;50.782;6.080;2022-09-01T06:08:52;16.80;99.90
9845;DHT22;4961;50.782;6.080;2022-09-01T06:11:25;16.80;99.90
9845;DHT22;4961;50.782;6.080;2022-09-01T06:13:59;16.80;99.90
9845;DHT22;4961;50.782;6.080;2022-09-01T06:16:27;16.80;99.90
9845;DHT22;4961;50.782;6.080;2022-09-01T06:18:57;16.80;99.90
9845;DHT22;4961;50.782;6.080;2022-09-01T06:21:26;16.80;99.90
9845;DHT22;4961;50.782;6.080;2022-09-01T06:23:56;16.90;99.90
9845;DHT22;4961;50.782;6.080;2022-09-01T06:26:28;16.90;99.90
9845;DHT22;4961;50.782;6.080;2022-09-01T06:28:59;16.90;99.90
9845;DHT22;4961;50.782;6.080;2022-09-01T06:31:30;16.90;99.90
9845;DHT22;4961;50.782;6.080;2022-09-01T06:34:01;16.90;99.90
9845;DHT22;4961;50.782;6.080;2022-09-01T06:36:30;16.90;99.90
9845;DHT22;4961;50.782;6.080;2022-09-01T06:39:03;17.00;99.90
9845;DHT22;4961;50.782;6.080;2022-09-01T06:41:31;17.00;99.90
9845;DHT22;4961;50.782;6.080;2022-09-01T06:44:02;17.10;99.90
9845;DHT22;4961;50.782;6.080;2022-09-01T06:46:31;17.10;99.90
9845;DHT22;4961;50.782;6.080;2022-09-01T06:49:00;17.20;99.90
9845;DHT22;4961;50.782;6.080;2022-09-01T06:51:29;17.20;99.90
9845;DHT22;4961;50.782;6.080;2022-09-01T06:53:58;17.20;99.90
9845;DHT22;4961;50.782;6.080;2022-09-01T06:56:30;17.30;99.90
9845;DHT22;4961;50.782;6.080;2022-09-01T06:59:08;17.40;99.90
9845;DHT22;4961;50.782;6.080;2022-09-01T07:01:41;17.40;99.90
9845;DHT22;4961;50.782;6.080;2022-09-01T07:04:10;17.40;99.90
9845;DHT22;4961;50.782;6.080;2022-09-01T07:06:39;17.50;99.90
9845;DHT22;4961;50.782;6.080;2022-09-01T07:09:30;17.50;99.90
9845;DHT22;4961;50.782;6.080;2022-09-01T07:12:21;17.60;99.90
9845;DHT22;4961;50.782;6.080;2022-09-01T07:14:56;17.70;99.90
9845;DHT22;4961;50.782;6.080;2022-09-01T07:17:50;17.70;99.90
9845;DHT22;4961;50.782;6.080;2022-09-01T07:20:21;17.80;99.90
9845;DHT22;4961;50.782;6.080;2022-09-01T07:22:52;17.90;99.90
9845;DHT22;4961;50.782;6.080;2022-09-01T07:25:38;17.90;99.90
9845;DHT22;4961;50.782;6.080;2022-09-01T07:28:28;18.00;99.90
9845;DHT22;4961;50.782;6.080;2022-09-01T07:31:06;18.10;99.90
9845;DHT22;4961;50.782;6.080;2022-09-01T07:33:57;18.20;99.90
9845;DHT22;4961;50.782;6.080;2022-09-01T07:36:47;18.20;99.90
9845;DHT22;4961;50.782;6.080;2022-09-01T07:39:36;18.30;99.90
9845;DHT22;4961;50.782;6.080;2022-09-01T07:42:21;18.40;99.90
9845;DHT22;4961;50.782;6.080;2022-09-01T07:45:13;18.50;99.90
9845;DHT22;4961;50.782;6.080;2022-09-01T07:47:58;18.60;99.90
9845;DHT22;4961;50.782;6.080;2022-09-01T07:50:34;18.70;99.90
9845;DHT22;4961;50.782;6.080;2022-09-01T07:53:25;18.80;99.90
9845;DHT22;4961;50.782;6.080;2022-09-01T07:55:55;18.80;99.90
9845;DHT22;4961;50.782;6.080;2022-09-01T07:58:26;18.90;99.90
9845;DHT22;4961;50.782;6.080;2022-09-01T08:00:56;19.00;99.90
9845;DHT22;4961;50.782;6.080;2022-09-01T08:03:25;19.10;99.90
9845;DHT22;4961;50.782;6.080;2022-09-01T08:05:54;19.10;99.90
9845;DHT22;4961;50.782;6.080;2022-09-01T08:08:26;19.20;99.90
9845;DHT22;4961;50.782;6.080;2022-09-01T08:10:55;19.30;99.90
9845;DHT22;4961;50.782;6.080;2022-09-01T08:13:31;19.30;99.90
9845;DHT22;4961;50.782;6.080;2022-09-01T08:16:09;19.40;99.90
9845;DHT22;4961;50.782;6.080;2022-09-01T08:18:49;19.50;99.90
9845;DHT22;4961;50.782;6.080;2022-09-01T08:21:22;19.60;99.90
9845;DHT22;4961;50.782;6.080;2022-09-01T08:23:52;19.70;99.90
9845;DHT22;4961;50.782;6.080;2022-09-01T08:26:23;19.80;99.90
9845;DHT22;4961;50.782;6.080;2022-09-01T08:28:52;19.80;99.90
9845;DHT22;4961;50.782;6.080;2022-09-01T08:31:23;19.90;99.90
9845;DHT22;4961;50.782;6.080;2022-09-01T08:33:56;20.00;99.90
9845;DHT22;4961;50.782;6.080;2022-09-01T08:36:26;20.10;99.90
9845;DHT22;4961;50.782;6.080;2022-09-01T08:38:54;20.20;99.90
9845;DHT22;4961;50.782;6.080;2022-09-01T08:41:32;20.30;99.90
9845;DHT22;4961;50.782;6.080;2022-09-01T08:44:10;20.40;99.90
9845;DHT22;4961;50.782;6.080;2022-09-01T08:46:44;20.50;99.90
9845;DHT22;4961;50.782;6.080;2022-09-01T08:49:15;20.60;99.90
9845;DHT22;4961;50.782;6.080;2022-09-01T08:51:55;20.70;99.90
9845;DHT22;4961;50.782;6.080;2022-09-01T08:54:31;20.90;99.90
9845;DHT22;4961;50.782;6.080;2022-09-01T08:57:06;21.00;99.90
9845;DHT22;4961;50.782;6.080;2022-09-01T08:59:35;21.30;99.90
9845;DHT22;4961;50.782;6.080;2022-09-01T09:02:20;21.50;99.90
9845;DHT22;4961;50.782;6.080;2022-09-01T09:04:58;21.80;99.90
9845;DHT22;4961;50.782;6.080;2022-09-01T09:07:56;22.00;99.90
9845;DHT22;4961;50.782;6.080;2022-09-01T09:10:41;22.40;99.90
9845;DHT22;4961;50.782;6.080;2022-09-01T09:13:19;22.80;99.90
9845;DHT22;4961;50.782;6.080;2022-09-01T09:15:52;23.20;99.90
9845;DHT22;4961;50.782;6.080;2022-09-01T09:18:41;23.70;99.90
9845;DHT22;4961;50.782;6.080;2022-09-01T09:21:29;24.10;99.90
9845;DHT22;4961;50.782;6.080;2022-09-01T09:24:04;24.70;99.90
9845;DHT22;4961;50.782;6.080;2022-09-01T09:26:34;25.10;99.90
9845;DHT22;4961;50.782;6.080;2022-09-01T09:29:11;25.50;99.90
9845;DHT22;4961;50.782;6.080;2022-09-01T09:31:40;25.90;99.90
9845;DHT22;4961;50.782;6.080;2022-09-01T09:34:31;26.00;99.90
9845;DHT22;4961;50.782;6.080;2022-09-01T09:37:15;26.40;99.90
9845;DHT22;4961;50.782;6.080;2022-09-01T09:39:43;26.70;99.90
9845;DHT22;4961;50.782;6.080;2022-09-01T09:42:13;26.90;99.90
9845;DHT22;4961;50.782;6.080;2022-09-01T09:44:43;27.10;99.90
9845;DHT22;4961;50.782;6.080;2022-09-01T09:47:37;27.40;99.90
9845;DHT22;4961;50.782;6.080;2022-09-01T09:50:19;27.60;99.90
9845;DHT22;4961;50.782;6.080;2022-09-01T09:52:50;27.90;99.90
9845;DHT22;4961;50.782;6.080;2022-09-01T09:55:27;28.00;99.90
9845;DHT22;4961;50.782;6.080;2022-09-01T09:57:58;28.20;99.90
9845;DHT22;4961;50.782;6.080;2022-09-01T10:00:31;28.40;99.90
9845;DHT22;4961;50.782;6.080;2022-09-01T10:03:02;28.50;99.90
9845;DHT22;4961;50.782;6.080;2022-09-01T10:05:40;28.60;99.90
9845;DHT22;4961;50.782;6.080;2022-09-01T10:08:12;28.70;99.90
9845;DHT22;4961;50.782;6.080;2022-09-01T10:10:48;28.70;99.50
9845;DHT22;4961;50.782;6.080;2022-09-01T10:13:26;28.70;99.40
9845;DHT22;4961;50.782;6.080;2022-09-01T10:16:01;28.90;99.10
9845;DHT22;4961;50.782;6.080;2022-09-01T10:18:36;29.00;99.90
9845;DHT22;4961;50.782;6.080;2022-09-01T10:21:13;29.20;99.90
9845;DHT22;4961;50.782;6.080;2022-09-01T10:23:43;29.40;99.00
9845;DHT22;4961;50.782;6.080;2022-09-01T10:26:14;29.40;99.90
9845;DHT22;4961;50.782;6.080;2022-09-01T10:28:48;29.40;99.00
9845;DHT22;4961;50.782;6.080;2022-09-01T10:31:19;29.30;98.00
9845;DHT22;4961;50.782;6.080;2022-09-01T10:33:49;28.90;96.90
9845;DHT22;4961;50.782;6.080;2022-09-01T10:36:19;28.70;99.30
9845;DHT22;4961;50.782;6.080;2022-09-01T10:38:50;28.80;98.90
9845;DHT22;4961;50.782;6.080;2022-09-01T10:41:52;29.00;98.50
9845;DHT22;4961;50.782;6.080;2022-09-01T10:44:28;29.20;96.90
9845;DHT22;4961;50.782;6.080;2022-09-01T10:47:07;29.50;98.40
9845;DHT22;4961;50.782;6.080;2022-09-01T10:49:58;29.60;98.00
9845;DHT22;4961;50.782;6.080;2022-09-01T10:53:02;29.30;96.20
9845;DHT22;4961;50.782;6.080;2022-09-01T10:55:36;29.20;97.70
9845;DHT22;4961;50.782;6.080;2022-09-01T10:58:24;28.90;94.80
9845;DHT22;4961;50.782;6.080;2022-09-01T11:01:16;28.90;96.60
9845;DHT22;4961;50.782;6.080;2022-09-01T11:04:18;28.90;95.50
9845;DHT22;4961;50.782;6.080;2022-09-01T11:06:58;29.20;94.60
9845;DHT22;4961;50.782;6.080;2022-09-01T11:09:41;29.50;96.80
9845;DHT22;4961;50.782;6.080;2022-09-01T11:12:40;29.60;92.60
9845;DHT22;4961;50.782;6.080;2022-09-01T11:15:34;29.50;94.00
9845;DHT22;4961;50.782;6.080;2022-09-01T11:18:09;29.50;92.90
9845;DHT22;4961;50.782;6.080;2022-09-01T11:20:44;29.60;94.60
9845;DHT22;4961;50.782;6.080;2022-09-01T11:23:22;29.80;94.70
9845;DHT22;4961;50.782;6.080;2022-09-01T11:25:52;29.60;94.50
9845;DHT22;4961;50.782;6.080;2022-09-01T11:28:41;29.20;93.80
9845;DHT22;4961;50.782;6.080;2022-09-01T11:31:20;28.70;95.50
9845;DHT22;4961;50.782;6.080;2022-09-01T11:34:01;28.80;95.10
9845;DHT22;4961;50.782;6.080;2022-09-01T11:36:35;29.00;92.00
9845;DHT22;4961;50.782;6.080;2022-09-01T11:39:07;29.30;94.90
9845;DHT22;4961;50.782;6.080;2022-09-01T11:41:50;29.50;93.80
9845;DHT22;4961;50.782;6.080;2022-09-01T11:44:29;29.80;92.80
9845;DHT22;4961;50.782;6.080;2022-09-01T11:47:03;29.80;94.40
9845;DHT22;4961;50.782;6.080;2022-09-01T11:49:49;29.80;93.80
9845;DHT22;4961;50.782;6.080;2022-09-01T11:52:22;29.90;92.20
9845;DHT22;4961;50.782;6.080;2022-09-01T11:54:51;29.90;91.00
9845;DHT22;4961;50.782;6.080;2022-09-01T11:57:24;29.90;91.20
9845;DHT22;4961;50.782;6.080;2022-09-01T11:59:53;30.00;94.30
9845;DHT22;4961;50.782;6.080;2022-09-01T12:02:25;30.10;92.50
9845;DHT22;4961;50.782;6.080;2022-09-01T12:04:54;30.10;91.10
9845;DHT22;4961;50.782;6.080;2022-09-01T12:07:37;30.20;93.80
9845;DHT22;4961;50.782;6.080;2022-09-01T12:10:16;30.40;90.40
9845;DHT22;4961;50.782;6.080;2022-09-01T12:12:46;30.40;92.80
9845;DHT22;4961;50.782;6.080;2022-09-01T12:15:19;30.30;91.90
9845;DHT22;4961;50.782;6.080;2022-09-01T12:17:49;30.00;92.00
9845;DHT22;4961;50.782;6.080;2022-09-01T12:20:23;29.40;91.50
9845;DHT22;4961;50.782;6.080;2022-09-01T12:23:02;28.90;94.00
9845;DHT22;4961;50.782;6.080;2022-09-01T12:25:40;28.40;92.20
9845;DHT22;4961;50.782;6.080;2022-09-01T12:28:13;28.10;91.10
9845;DHT22;4961;50.782;6.080;2022-09-01T12:30:43;27.90;95.50
9845;DHT22;4961;50.782;6.080;2022-09-01T12:33:11;28.00;95.70
9845;DHT22;4961;50.782;6.080;2022-09-01T12:35:50;28.20;92.90
9845;DHT22;4961;50.782;6.080;2022-09-01T12:38:28;28.30;93.00
9845;DHT22;4961;50.782;6.080;2022-09-01T12:40:57;28.50;94.30
9845;DHT22;4961;50.782;6.080;2022-09-01T12:43:32;28.70;93.50
9845;DHT22;4961;50.782;6.080;2022-09-01T12:46:01;28.90;91.70
9845;DHT22;4961;50.782;6.080;2022-09-01T12:48:32;28.90;92.90
9845;DHT22;4961;50.782;6.080;2022-09-01T12:51:03;29.00;93.10
9845;DHT22;4961;50.782;6.080;2022-09-01T12:53:36;29.10;92.80
9845;DHT22;4961;50.782;6.080;2022-09-01T12:56:22;29.20;94.60
9845;DHT22;4961;50.782;6.080;2022-09-01T12:59:04;29.20;93.50
9845;DHT22;4961;50.782;6.080;2022-09-01T13:01:40;29.30;93.70
9845;DHT22;4961;50.782;6.080;2022-09-01T13:04:21;29.00;91.50
9845;DHT22;4961;50.782;6.080;2022-09-01T13:06:51;28.90;93.40
9845;DHT22;4961;50.782;6.080;2022-09-01T13:09:21;28.90;93.50
9845;DHT22;4961;50.782;6.080;2022-09-01T13:11:49;29.00;94.90
9845;DHT22;4961;50.782;6.080;2022-09-01T13:14:34;29.00;91.80
9845;DHT22;4961;50.782;6.080;2022-09-01T13:17:03;29.10;91.90
9845;DHT22;4961;50.782;6.080;2022-09-01T13:19:39;29.10;93.60
9845;DHT22;4961;50.782;6.080;2022-09-01T13:22:08;29.10;93.90
9845;DHT22;4961;50.782;6.080;2022-09-01T13:24:38;29.00;93.30
9845;DHT22;4961;50.782;6.080;2022-09-01T13:27:06;28.80;90.90
9845;DHT22;4961;50.782;6.080;2022-09-01T13:29:51;28.80;92.70
9845;DHT22;4961;50.782;6.080;2022-09-01T13:32:20;28.70;92.90
9845;DHT22;4961;50.782;6.080;2022-09-01T13:34:51;28.70;93.40
9845;DHT22;4961;50.782;6.080;2022-09-01T13:37:21;28.70;94.00
9845;DHT22;4961;50.782;6.080;2022-09-01T13:39:51;28.60;92.20
9845;DHT22;4961;50.782;6.080;2022-09-01T13:42:20;28.60;93.30
9845;DHT22;4961;50.782;6.080;2022-09-01T13:44:52;28.50;91.30
9845;DHT22;4961;50.782;6.080;2022-09-01T13:47:23;28.40;92.20
9845;DHT22;4961;50.782;6.080;2022-09-01T13:49:56;28.40;93.40
9845;DHT22;4961;50.782;6.080;2022-09-01T13:52:34;28.40;91.70
9845;DHT22;4961;50.782;6.080;2022-09-01T13:55:06;28.50;91.90
9845;DHT22;4961;50.782;6.080;2022-09-01T13:57:35;28.30;92.50
9845;DHT22;4961;50.782;6.080;2022-09-01T14:00:13;28.30;90.40
9845;DHT22;4961;50.782;6.080;2022-09-01T14:02:46;28.30;92.40
9845;DHT22;4961;50.782;6.080;2022-09-01T14:05:17;28.30;91.10
9845;DHT22;4961;50.782;6.080;2022-09-01T14:07:46;28.40;93.60
9845;DHT22;4961;50.782;6.080;2022-09-01T14:10:18;28.40;94.20
9845;DHT22;4961;50.782;6.080;2022-09-01T14:12:48;28.30;93.60
9845;DHT22;4961;50.782;6.080;2022-09-01T14:15:18;28.00;92.50
9845;DHT22;4961;50.782;6.080;2022-09-01T14:17:55;27.80;92.60
9845;DHT22;4961;50.782;6.080;2022-09-01T14:20:26;27.70;92.90
9845;DHT22;4961;50.782;6.080;2022-09-01T14:22:59;27.70;94.50
9845;DHT22;4961;50.782;6.080;2022-09-01T14:25:30;27.80;95.10
9845;DHT22;4961;50.782;6.080;2022-09-01T14:28:00;27.80;92.20
9845;DHT22;4961;50.782;6.080;2022-09-01T14:30:31;27.80;93.10
9845;DHT22;4961;50.782;6.080;2022-09-01T14:33:00;27.60;93.90
9845;DHT22;4961;50.782;6.080;2022-09-01T14:35:30;27.40;93.70
9845;DHT22;4961;50.782;6.080;2022-09-01T14:38:00;27.20;93.10
9845;DHT22;4961;50.782;6.080;2022-09-01T14:40:32;27.20;92.20
9845;DHT22;4961;50.782;6.080;2022-09-01T14:43:04;27.20;93.10
9845;DHT22;4961;50.782;6.080;2022-09-01T14:45:33;27.30;93.10
9845;DHT22;4961;50.782;6.080;2022-09-01T14:48:03;27.30;93.40
9845;DHT22;4961;50.782;6.080;2022-09-01T14:50:32;27.30;93.70
9845;DHT22;4961;50.782;6.080;2022-09-01T14:53:01;27.40;94.10
9845;DHT22;4961;50.782;6.080;2022-09-01T14:55:31;27.50;93.10
9845;DHT22;4961;50.782;6.080;2022-09-01T14:58:00;27.50;92.70
9845;DHT22;4961;50.782;6.080;2022-09-01T15:00:29;27.70;93.30
9845;DHT22;4961;50.782;6.080;2022-09-01T15:02:57;27.70;90.60
9845;DHT22;4961;50.782;6.080;2022-09-01T15:05:26;27.60;92.60
9845;DHT22;4961;50.782;6.080;2022-09-01T15:08:08;27.40;94.20
9845;DHT22;4961;50.782;6.080;2022-09-01T15:10:45;27.40;93.70
9845;DHT22;4961;50.782;6.080;2022-09-01T15:13:14;27.40;93.00
9845;DHT22;4961;50.782;6.080;2022-09-01T15:15:42;27.40;92.20
9845;DHT22;4961;50.782;6.080;2022-09-01T15:18:11;27.40;92.80
9845;DHT22;4961;50.782;6.080;2022-09-01T15:20:40;27.40;93.70
9845;DHT22;4961;50.782;6.080;2022-09-01T15:23:18;27.40;94.20
9845;DHT22;4961;50.782;6.080;2022-09-01T15:25:50;27.30;92.10
9845;DHT22;4961;50.782;6.080;2022-09-01T15:28:19;27.30;93.10
9845;DHT22;4961;50.782;6.080;2022-09-01T15:30:48;27.30;92.90
9845;DHT22;4961;50.782;6.080;2022-09-01T15:33:20;27.20;93.60
9845;DHT22;4961;50.782;6.080;2022-09-01T15:35:48;27.30;93.20
9845;DHT22;4961;50.782;6.080;2022-09-01T15:38:19;27.20;92.80
9845;DHT22;4961;50.782;6.080;2022-09-01T15:40:54;27.20;92.10
9845;DHT22;4961;50.782;6.080;2022-09-01T15:43:25;27.20;92.90
9845;DHT22;4961;50.782;6.080;2022-09-01T15:45:55;27.10;93.70
9845;DHT22;4961;50.782;6.080;2022-09-01T15:48:24;26.90;92.40
9845;DHT22;4961;50.782;6.080;2022-09-01T15:51:06;26.80;93.10
9845;DHT22;4961;50.782;6.080;2022-09-01T15:53:37;26.60;94.30
9845;DHT22;4961;50.782;6.080;2022-09-01T15:56:07;26.40;93.30
9845;DHT22;4961;50.782;6.080;2022-09-01T15:58:35;26.30;95.30
9845;DHT22;4961;50.782;6.080;2022-09-01T16:01:24;26.30;94.60
9845;DHT22;4961;50.782;6.080;2022-09-01T16:03:53;26.10;95.70
9845;DHT22;4961;50.782;6.080;2022-09-01T16:06:22;26.00;95.50
9845;DHT22;4961;50.782;6.080;2022-09-01T16:08:52;26.00;96.10
9845;DHT22;4961;50.782;6.080;2022-09-01T16:11:23;25.90;96.60
9845;DHT22;4961;50.782;6.080;2022-09-01T16:13:53;25.70;96.20
9845;DHT22;4961;50.782;6.080;2022-09-01T16:16:39;25.70;95.50
9845;DHT22;4961;50.782;6.080;2022-09-01T16:19:24;25.60;95.40
9845;DHT22;4961;50.782;6.080;2022-09-01T16:22:02;25.50;96.80
9845;DHT22;4961;50.782;6.080;2022-09-01T16:24:39;25.50;96.80
9845;DHT22;4961;50.782;6.080;2022-09-01T16:27:14;25.40;97.30
9845;DHT22;4961;50.782;6.080;2022-09-01T16:29:47;25.40;95.00
9845;DHT22;4961;50.782;6.080;2022-09-01T16:32:18;25.40;96.00
9845;DHT22;4961;50.782;6.080;2022-09-01T16:34:50;25.30;94.80
9845;DHT22;4961;50.782;6.080;2022-09-01T16:37:27;25.30;97.50
9845;DHT22;4961;50.782;6.080;2022-09-01T16:40:04;25.20;96.90
9845;DHT22;4961;50.782;6.080;2022-09-01T16:42:43;25.20;96.20
9845;DHT22;4961;50.782;6.080;2022-09-01T16:45:37;25.10;96.10